createdAt,value
2023-05-06T00:01:57.875Z,2.67
2023-05-06T00:04:24.583Z,2.63
2023-05-06T00:06:51.412Z,2.80
2023-05-06T00:09:18.061Z,2.58
2023-05-06T00:11:45.832Z,3.03
2023-05-06T00:14:12.519Z,2.70
2023-05-06T00:16:39.196Z,2.65
2023-05-06T00:19:05.829Z,2.50
2023-05-06T00:21:32.461Z,3.20
2023-05-06T00:23:59.086Z,2.88
2023-05-06T00:26:25.669Z,3.03
2023-05-06T00:28:53.257Z,3.65
2023-05-06T00:31:19.923Z,3.65
2023-05-06T00:33:46.655Z,3.40
2023-05-06T00:36:13.267Z,3.13
2023-05-06T00:38:40.090Z,3.28
2023-05-06T00:41:06.976Z,2.97
2023-05-06T00:43:33.566Z,3.35
2023-05-06T00:46:00.728Z,3.17
2023-05-06T00:48:27.594Z,3.53
2023-05-06T00:50:54.307Z,3.50
2023-05-06T00:53:23.711Z,3.22
2023-05-06T00:55:51.282Z,3.65
2023-05-06T00:58:20.149Z,3.63
2023-05-06T01:00:46.840Z,3.10
2023-05-06T01:03:13.688Z,3.10
2023-05-06T01:05:51.086Z,3.28
2023-05-06T01:08:27.802Z,3.20
2023-05-06T01:11:00.287Z,3.00
2023-05-06T01:13:56.390Z,2.92
2023-05-06T01:16:25.410Z,3.47
2023-05-06T01:18:54.774Z,3.05
2023-05-06T01:21:22.742Z,3.28
2023-05-06T01:23:58.726Z,3.67
2023-05-06T01:26:26.327Z,3.67
2023-05-06T01:28:53.888Z,3.65
2023-05-06T01:31:26.329Z,3.60
2023-05-06T01:34:05.113Z,3.90
2023-05-06T01:36:57.645Z,3.38
2023-05-06T01:39:26.516Z,3.70
2023-05-06T01:41:57.334Z,3.67
2023-05-06T01:44:27.611Z,3.90
2023-05-06T01:46:55.190Z,4.20
2023-05-06T01:49:25.126Z,3.58
2023-05-06T01:51:53.082Z,4.15
2023-05-06T01:54:19.721Z,3.97
2023-05-06T01:56:46.675Z,3.78
2023-05-06T01:59:14.731Z,3.42
2023-05-06T02:01:41.367Z,3.83
2023-05-06T02:04:08.055Z,3.90
2023-05-06T02:06:34.682Z,4.18
2023-05-06T02:09:01.409Z,4.47
2023-05-06T02:11:29.747Z,4.15
2023-05-06T02:14:02.246Z,3.97
2023-05-06T02:16:31.490Z,4.03
2023-05-06T02:18:58.284Z,3.45
2023-05-06T02:21:24.893Z,3.72
2023-05-06T02:23:51.506Z,4.10
2023-05-06T02:26:18.133Z,3.55
2023-05-06T02:28:44.755Z,3.70
2023-05-06T02:31:16.233Z,4.30
2023-05-06T02:33:45.000Z,3.53
2023-05-06T02:36:11.588Z,4.18
2023-05-06T02:38:38.141Z,3.85
2023-05-06T02:41:04.836Z,3.60
2023-05-06T02:43:31.431Z,4.20
2023-05-06T02:45:58.406Z,3.50
2023-05-06T02:48:25.703Z,3.22
2023-05-06T02:50:52.398Z,4.07
2023-05-06T02:53:19.041Z,3.75
2023-05-06T02:55:45.846Z,3.33
2023-05-06T02:58:12.428Z,3.80
2023-05-06T03:00:39.005Z,3.58
2023-05-06T03:03:05.894Z,3.53
2023-05-06T03:05:32.568Z,3.60
2023-05-06T03:07:59.187Z,3.67
2023-05-06T03:10:25.894Z,3.70
2023-05-06T03:12:52.932Z,3.60
2023-05-06T03:15:19.592Z,3.85
2023-05-06T03:17:47.530Z,3.67
2023-05-06T03:20:14.504Z,3.58
2023-05-06T03:22:46.427Z,3.80
2023-05-06T03:25:13.043Z,4.05
2023-05-06T03:27:41.251Z,4.60
2023-05-06T03:30:15.375Z,3.88
2023-05-06T03:32:42.529Z,4.00
2023-05-06T03:35:12.090Z,4.28
2023-05-06T03:37:41.773Z,4.10
2023-05-06T03:40:09.452Z,4.40
2023-05-06T03:42:36.359Z,4.32
2023-05-06T03:45:05.060Z,4.50
2023-05-06T03:47:32.960Z,4.22
2023-05-06T03:50:00.962Z,4.22
2023-05-06T03:52:28.322Z,3.85
2023-05-06T03:54:55.277Z,4.55
2023-05-06T03:57:22.241Z,4.05
2023-05-06T03:59:49.149Z,4.10
2023-05-06T04:02:16.378Z,4.05
2023-05-06T04:04:43.250Z,3.90
2023-05-06T04:07:10.094Z,4.50
2023-05-06T04:09:36.720Z,3.72
2023-05-06T04:12:07.128Z,4.00
2023-05-06T04:14:34.905Z,4.38
2023-05-06T04:17:02.212Z,3.83
2023-05-06T04:19:28.848Z,4.25
2023-05-06T04:21:56.621Z,4.07
2023-05-06T04:24:23.279Z,4.00
2023-05-06T04:26:50.072Z,4.10
2023-05-06T04:29:17.227Z,4.00
2023-05-06T04:31:54.680Z,4.38
2023-05-06T04:34:22.639Z,3.95
2023-05-06T04:36:49.515Z,4.07
2023-05-06T04:39:34.576Z,4.38
2023-05-06T04:42:02.252Z,4.32
2023-05-06T04:44:36.480Z,3.95
2023-05-06T04:49:32.926Z,4.18
2023-05-06T04:52:01.015Z,3.63
2023-05-06T04:54:27.785Z,4.07
2023-05-06T04:56:54.446Z,3.40
2023-05-06T04:59:21.127Z,3.83
2023-05-06T05:01:48.322Z,4.38
2023-05-06T05:04:15.980Z,3.85
2023-05-06T05:06:42.832Z,3.40
2023-05-06T05:09:10.645Z,4.00
2023-05-06T05:11:39.852Z,3.60
2023-05-06T05:14:06.553Z,4.43
2023-05-06T05:16:33.471Z,3.80
2023-05-06T05:19:03.532Z,4.30
2023-05-06T05:21:32.844Z,4.15
2023-05-06T05:24:00.303Z,4.25
2023-05-06T05:26:27.102Z,3.78
2023-05-06T05:28:55.632Z,4.00
2023-05-06T05:31:23.108Z,3.65
2023-05-06T05:33:50.183Z,4.32
2023-05-06T05:36:19.975Z,4.60
2023-05-06T05:38:50.005Z,4.63
2023-05-06T05:41:17.923Z,4.90
2023-05-06T05:43:45.574Z,4.90
2023-05-06T05:46:12.285Z,4.90
2023-05-06T05:48:40.006Z,5.60
2023-05-06T05:51:07.357Z,5.60
2023-05-06T05:53:34.139Z,6.10
2023-05-06T05:56:00.750Z,5.57
2023-05-06T05:58:28.562Z,5.97
2023-05-06T06:00:57.827Z,6.28
2023-05-06T06:03:25.023Z,7.13
2023-05-06T06:05:53.143Z,7.38
2023-05-06T06:08:20.008Z,7.63
2023-05-06T06:10:48.568Z,8.02
2023-05-06T06:13:20.474Z,7.57
2023-05-06T06:15:47.365Z,8.90
2023-05-06T06:18:14.498Z,8.95
2023-05-06T06:20:42.188Z,8.80
2023-05-06T06:23:09.246Z,8.90
2023-05-06T06:25:36.218Z,8.50
2023-05-06T06:28:02.905Z,8.52
2023-05-06T06:30:29.615Z,8.23
2023-05-06T06:32:56.856Z,9.30
2023-05-06T06:35:23.810Z,8.43
2023-05-06T06:37:50.726Z,7.95
2023-05-06T06:40:17.419Z,8.32
2023-05-06T06:42:44.078Z,8.55
2023-05-06T06:45:29.383Z,8.18
2023-05-06T06:47:56.096Z,8.25
2023-05-06T06:50:22.708Z,7.85
2023-05-06T06:52:49.279Z,7.78
2023-05-06T06:55:15.905Z,7.75
2023-05-06T06:57:42.523Z,7.65
2023-05-06T07:00:10.203Z,6.90
2023-05-06T07:02:36.862Z,7.25
2023-05-06T07:05:04.501Z,7.40
2023-05-06T07:07:31.244Z,7.47
2023-05-06T07:09:58.272Z,6.10
2023-05-06T07:12:26.708Z,6.90
2023-05-06T07:14:53.356Z,6.85
2023-05-06T07:17:20.052Z,6.43
2023-05-06T07:19:46.783Z,7.03
2023-05-06T07:22:13.370Z,7.65
2023-05-06T07:24:39.990Z,8.07
2023-05-06T07:27:06.604Z,6.95
2023-05-06T07:29:34.850Z,7.85
2023-05-06T07:32:01.704Z,7.40
2023-05-06T07:34:28.346Z,7.68
2023-05-06T07:36:54.932Z,8.30
2023-05-06T07:39:21.524Z,8.30
2023-05-06T07:41:48.132Z,7.53
2023-05-06T07:44:14.716Z,8.20
2023-05-06T07:46:41.549Z,8.85
2023-05-06T07:49:08.223Z,8.32
2023-05-06T07:51:34.893Z,8.02
2023-05-06T07:54:01.906Z,7.53
2023-05-06T07:56:28.636Z,7.50
2023-05-06T07:58:55.312Z,7.70
2023-05-06T08:01:22.104Z,7.25
2023-05-06T08:03:48.732Z,7.63
2023-05-06T08:06:15.349Z,7.65
2023-05-06T08:08:41.986Z,8.32
2023-05-06T08:11:08.598Z,8.30
2023-05-06T08:13:35.320Z,8.30
2023-05-06T08:16:02.467Z,7.70
2023-05-06T08:18:29.972Z,7.78
2023-05-06T08:20:56.765Z,7.63
2023-05-06T08:23:23.578Z,7.38
2023-05-06T08:25:50.220Z,7.13
2023-05-06T08:28:16.854Z,6.90
2023-05-06T08:30:44.742Z,6.43
2023-05-06T08:33:11.416Z,7.10
2023-05-06T08:35:38.112Z,7.50
2023-05-06T08:38:04.824Z,7.50
2023-05-06T08:40:33.582Z,7.47
2023-05-06T08:43:03.395Z,6.88
2023-05-06T08:45:30.327Z,7.57
2023-05-06T08:47:57.318Z,6.78
2023-05-06T08:50:25.481Z,7.70
2023-05-06T08:52:52.288Z,7.20
2023-05-06T08:55:19.714Z,6.93
2023-05-06T08:57:47.950Z,7.85
2023-05-06T09:00:15.087Z,7.30
2023-05-06T09:02:43.313Z,7.15
2023-05-06T09:05:12.174Z,7.15
2023-05-06T09:07:39.126Z,7.70
2023-05-06T09:10:07.829Z,7.15
2023-05-06T09:12:37.876Z,7.80
2023-05-06T09:15:05.247Z,8.48
2023-05-06T09:17:32.661Z,7.63
2023-05-06T09:20:00.961Z,7.32
2023-05-06T09:22:29.579Z,8.32
2023-05-06T09:25:00.046Z,7.80
2023-05-06T09:27:32.907Z,8.10
2023-05-06T09:30:07.328Z,7.78
2023-05-06T09:32:36.813Z,8.15
2023-05-06T09:35:06.990Z,7.55
2023-05-06T09:37:33.678Z,7.47
2023-05-06T09:40:03.465Z,7.68
2023-05-06T09:42:31.044Z,8.13
2023-05-06T09:45:02.134Z,7.18
2023-05-06T09:47:35.170Z,7.10
2023-05-06T09:50:03.692Z,7.40
2023-05-06T09:52:31.339Z,7.40
2023-05-06T09:54:58.544Z,7.55
2023-05-06T09:57:26.345Z,7.43
2023-05-06T09:59:54.212Z,7.15
2023-05-06T10:02:22.972Z,7.07
2023-05-06T10:04:50.361Z,7.15
2023-05-06T10:07:22.543Z,6.88
2023-05-06T10:09:50.763Z,6.75
2023-05-06T10:12:18.285Z,6.75
2023-05-06T10:14:45.074Z,7.63
2023-05-06T10:17:13.204Z,6.68
2023-05-06T10:19:44.193Z,6.28
2023-05-06T10:22:46.305Z,6.65
2023-05-06T10:25:38.892Z,6.50
2023-05-06T10:28:08.492Z,6.90
2023-05-06T10:30:40.822Z,6.50
2023-05-06T10:33:09.755Z,6.43
2023-05-06T10:35:52.912Z,6.32
2023-05-06T10:38:26.745Z,6.35
2023-05-06T10:40:54.801Z,6.40
2023-05-06T10:43:35.326Z,6.88
2023-05-06T10:48:31.393Z,6.10
2023-05-06T10:51:19.812Z,5.32
2023-05-06T10:53:57.265Z,5.78
2023-05-06T10:56:24.619Z,5.65
2023-05-06T10:58:52.155Z,5.80
2023-05-06T11:01:22.399Z,5.20
2023-05-06T11:03:50.868Z,5.82
2023-05-06T11:06:37.835Z,5.95
2023-05-06T11:09:06.294Z,5.43
2023-05-06T11:11:52.251Z,6.35
2023-05-06T11:14:36.043Z,6.40
2023-05-06T11:17:05.376Z,6.03
2023-05-06T11:19:37.633Z,6.30
2023-05-06T11:22:06.089Z,6.13
2023-05-06T11:24:38.331Z,5.63
2023-05-06T11:27:05.800Z,6.00
2023-05-06T11:29:32.490Z,6.68
2023-05-06T11:31:59.350Z,6.50
2023-05-06T11:34:29.884Z,6.40
2023-05-06T11:36:57.579Z,6.13
2023-05-06T11:39:30.152Z,6.53
2023-05-06T11:42:02.859Z,6.07
2023-05-06T11:44:32.883Z,5.85
2023-05-06T11:47:02.027Z,6.57
2023-05-06T11:49:28.919Z,5.22
2023-05-06T11:51:57.117Z,4.85
2023-05-06T11:54:26.358Z,5.32
2023-05-06T11:56:56.190Z,5.45
2023-05-06T11:59:40.589Z,6.10
2023-05-06T12:02:10.016Z,6.15
2023-05-06T12:04:38.729Z,6.65
2023-05-06T12:07:07.462Z,5.97
2023-05-06T12:09:35.095Z,7.43
2023-05-06T12:12:03.620Z,6.88
2023-05-06T12:14:30.938Z,6.97
2023-05-06T12:16:58.152Z,6.28
2023-05-06T12:19:24.962Z,6.90
2023-05-06T12:21:52.365Z,6.72
2023-05-06T12:24:28.922Z,6.30
2023-05-06T12:26:56.152Z,6.43
2023-05-06T12:29:22.758Z,6.30
2023-05-06T12:31:49.603Z,7.70
2023-05-06T12:34:18.414Z,6.80
2023-05-06T12:36:47.072Z,6.15
2023-05-06T12:39:14.128Z,7.50
2023-05-06T12:41:45.046Z,5.95
2023-05-06T12:44:36.675Z,6.93
2023-05-06T12:47:24.952Z,5.40
2023-05-06T12:49:51.718Z,5.30
2023-05-06T12:52:20.582Z,5.50
2023-05-06T12:54:47.570Z,5.90
2023-05-06T12:57:14.556Z,5.22
2023-05-06T12:59:42.371Z,5.78
2023-05-06T13:02:09.730Z,4.90
2023-05-06T13:04:36.330Z,5.00
2023-05-06T13:07:03.467Z,4.22
2023-05-06T13:09:30.320Z,4.60
2023-05-06T13:11:56.883Z,5.07
2023-05-06T13:14:23.578Z,4.78
2023-05-06T13:16:50.352Z,4.93
2023-05-06T13:21:46.739Z,5.35
2023-05-06T13:24:13.279Z,5.65
2023-05-06T13:26:40.030Z,5.20
2023-05-06T13:29:06.821Z,5.10
2023-05-06T13:31:34.718Z,5.72
2023-05-06T13:34:01.463Z,5.18
2023-05-06T13:36:28.150Z,6.10
2023-05-06T13:38:55.036Z,5.97
2023-05-06T13:41:22.499Z,5.75
2023-05-06T13:43:49.036Z,6.68
2023-05-06T13:46:15.737Z,5.82
2023-05-06T13:48:42.357Z,6.28
2023-05-06T13:51:09.040Z,6.15
2023-05-06T13:53:35.629Z,6.03
2023-05-06T13:56:02.468Z,6.45
2023-05-06T13:58:29.148Z,6.50
2023-05-06T14:00:56.848Z,6.10
2023-05-06T14:03:23.421Z,6.53
2023-05-06T14:05:50.465Z,6.07
2023-05-06T14:08:17.274Z,6.70
2023-05-06T14:10:44.210Z,6.95
2023-05-06T14:13:11.608Z,6.75
2023-05-06T14:15:38.298Z,6.85
2023-05-06T14:18:05.097Z,6.18
2023-05-06T14:20:31.869Z,6.40
2023-05-06T14:22:58.457Z,6.70
2023-05-06T14:25:27.860Z,6.70
2023-05-06T14:27:55.061Z,6.77
2023-05-06T14:30:21.966Z,6.65
2023-05-06T14:32:48.722Z,6.57
2023-05-06T14:35:16.257Z,6.07
2023-05-06T14:37:42.832Z,7.25
2023-05-06T14:40:10.357Z,6.00
2023-05-06T14:42:37.205Z,7.05
2023-05-06T14:45:04.343Z,7.55
2023-05-06T14:47:31.059Z,7.18
2023-05-06T14:49:57.790Z,6.50
2023-05-06T14:52:24.430Z,6.72
2023-05-06T14:54:51.105Z,6.60
2023-05-06T14:57:17.737Z,6.78
2023-05-06T14:59:44.282Z,6.70
2023-05-06T15:02:11.084Z,7.32
2023-05-06T15:04:37.826Z,6.57
2023-05-06T15:07:04.633Z,6.45
2023-05-06T15:09:31.472Z,6.32
2023-05-06T15:11:58.238Z,7.35
2023-05-06T15:14:24.928Z,6.80
2023-05-06T15:16:55.932Z,6.43
2023-05-06T15:19:22.735Z,7.38
2023-05-06T15:21:49.341Z,7.45
2023-05-06T15:24:16.008Z,6.68
2023-05-06T15:26:42.831Z,6.38
2023-05-06T15:29:09.562Z,6.30
2023-05-06T15:31:39.172Z,5.30
2023-05-06T15:34:09.400Z,6.50
2023-05-06T15:36:36.143Z,7.28
2023-05-06T15:39:03.225Z,6.25
2023-05-06T15:41:32.294Z,6.60
2023-05-06T15:44:00.617Z,6.28
2023-05-06T15:46:28.013Z,5.93
2023-05-06T15:49:15.629Z,6.95
2023-05-06T15:51:41.487Z,6.32
2023-05-06T15:54:08.850Z,7.68
2023-05-06T15:56:40.669Z,13.10
2023-05-06T15:59:08.433Z,7.40
2023-05-06T16:01:57.361Z,7.70
2023-05-06T16:04:22.410Z,7.85
2023-05-06T16:06:49.874Z,7.90
2023-05-06T16:09:16.578Z,7.20
2023-05-06T16:11:43.214Z,6.85
2023-05-06T16:14:09.786Z,6.78
2023-05-06T16:16:36.615Z,6.97
2023-05-06T16:19:03.359Z,6.70
2023-05-06T16:21:30.401Z,7.68
2023-05-06T16:23:57.018Z,10.38
2023-05-06T16:26:24.520Z,10.25
2023-05-06T16:28:51.172Z,9.23
2023-05-06T16:31:18.424Z,7.70
2023-05-06T16:33:45.219Z,19.42
2023-05-06T16:36:12.547Z,10.35
2023-05-06T16:38:39.074Z,12.77
2023-05-06T16:41:05.756Z,7.47
2023-05-06T16:43:32.402Z,10.88
2023-05-06T16:45:58.945Z,8.93
2023-05-06T16:48:25.764Z,6.68
2023-05-06T16:50:52.967Z,6.63
2023-05-06T16:53:19.584Z,9.68
2023-05-06T16:55:49.907Z,8.15
2023-05-06T16:58:16.618Z,7.13
2023-05-06T17:00:43.501Z,6.43
2023-05-06T17:03:10.381Z,7.55
2023-05-06T17:05:37.127Z,7.32
2023-05-06T17:08:03.974Z,6.53
2023-05-06T17:10:30.670Z,11.32
2023-05-06T17:12:58.174Z,13.90
2023-05-06T17:15:25.166Z,11.20
2023-05-06T17:17:51.958Z,7.35
2023-05-06T17:20:21.888Z,7.97
2023-05-06T17:22:49.172Z,6.45
2023-05-06T17:25:16.150Z,5.93
2023-05-06T17:27:43.053Z,7.15
2023-05-06T17:30:09.941Z,6.93
2023-05-06T17:32:37.415Z,7.30
2023-05-06T17:35:04.621Z,6.00
2023-05-06T17:37:31.509Z,6.50
2023-05-06T17:39:58.192Z,11.32
2023-05-06T17:42:26.068Z,7.82
2023-05-06T17:44:53.119Z,6.82
2023-05-06T17:47:22.734Z,7.13
2023-05-06T17:49:53.694Z,8.90
2023-05-06T17:52:20.870Z,7.25
2023-05-06T17:55:05.699Z,6.40
2023-05-06T17:57:37.338Z,7.05
2023-05-06T18:00:04.498Z,15.43
2023-05-06T18:02:38.504Z,9.68
2023-05-06T18:05:06.361Z,6.15
2023-05-06T18:07:33.020Z,6.00
2023-05-06T18:09:59.730Z,5.57
2023-05-06T18:12:26.893Z,6.05
2023-05-06T18:14:55.295Z,6.60
2023-05-06T18:17:21.948Z,5.13
2023-05-06T18:19:48.675Z,5.15
2023-05-06T18:22:15.292Z,5.47
2023-05-06T18:24:41.887Z,5.00
2023-05-06T18:27:08.493Z,4.32
2023-05-06T18:29:35.516Z,4.88
2023-05-06T18:32:02.255Z,5.03
2023-05-06T18:34:29.052Z,5.90
2023-05-06T18:36:55.866Z,5.63
2023-05-06T18:39:23.613Z,5.45
2023-05-06T18:41:50.409Z,5.28
2023-05-06T18:44:17.030Z,4.68
2023-05-06T18:46:43.568Z,5.13
2023-05-06T18:49:10.250Z,4.97
2023-05-06T18:51:37.198Z,6.15
2023-05-06T18:54:04.349Z,5.43
2023-05-06T18:56:31.713Z,5.22
2023-05-06T18:58:58.556Z,6.15
2023-05-06T19:01:25.306Z,7.18
2023-05-06T19:03:52.486Z,7.70
2023-05-06T19:06:19.111Z,6.82
2023-05-06T19:08:45.837Z,5.78
2023-05-06T19:11:16.246Z,4.90
2023-05-06T19:13:43.887Z,8.18
2023-05-06T19:16:11.249Z,9.32
2023-05-06T19:18:38.123Z,9.55
2023-05-06T19:21:04.839Z,11.60
2023-05-06T19:23:32.813Z,11.38
2023-05-06T19:25:59.481Z,6.70
2023-05-06T19:28:26.085Z,4.63
2023-05-06T19:30:52.851Z,7.35
2023-05-06T19:33:19.559Z,5.35
2023-05-06T19:35:46.322Z,5.53
2023-05-06T19:38:12.900Z,4.30
2023-05-06T19:40:39.516Z,5.03
2023-05-06T19:43:06.064Z,4.03
2023-05-06T19:45:33.817Z,4.20
2023-05-06T19:48:01.199Z,4.05
2023-05-06T19:50:28.388Z,3.33
2023-05-06T19:52:55.019Z,3.97
2023-05-06T19:55:22.110Z,3.78
2023-05-06T19:57:50.184Z,3.95
2023-05-06T20:00:19.949Z,4.45
2023-05-06T20:02:46.653Z,5.10
2023-05-06T20:05:13.673Z,4.38
2023-05-06T20:07:41.203Z,5.05
2023-05-06T20:10:09.924Z,4.57
2023-05-06T20:12:36.503Z,5.22
2023-05-06T20:15:06.951Z,5.13
2023-05-06T20:17:34.561Z,5.45
2023-05-06T20:20:04.237Z,5.22
2023-05-06T20:22:32.332Z,7.68
2023-05-06T20:25:17.356Z,25.60
2023-05-06T20:27:45.100Z,25.77
2023-05-06T20:30:12.325Z,8.70
2023-05-06T20:32:40.387Z,11.00
2023-05-06T20:35:07.854Z,7.82
2023-05-06T20:37:35.365Z,4.55
2023-05-06T20:40:04.496Z,4.68
2023-05-06T20:42:31.364Z,4.13
2023-05-06T20:44:58.050Z,4.05
2023-05-06T20:47:24.657Z,4.20
2023-05-06T20:49:51.394Z,4.15
2023-05-06T20:52:18.300Z,3.90
2023-05-06T20:54:45.455Z,3.67
2023-05-06T20:57:14.603Z,3.50
2023-05-06T20:59:41.730Z,3.45
2023-05-06T21:02:09.043Z,3.28
2023-05-06T21:04:35.858Z,3.20
2023-05-06T21:07:02.935Z,3.40
2023-05-06T21:09:29.590Z,3.40
2023-05-06T21:11:56.603Z,3.17
2023-05-06T21:14:24.788Z,3.42
2023-05-06T21:16:52.198Z,3.72
2023-05-06T21:19:19.114Z,3.45
2023-05-06T21:21:45.771Z,3.63
2023-05-06T21:24:12.920Z,3.78
2023-05-06T21:26:40.004Z,3.83
2023-05-06T21:29:06.607Z,4.20
2023-05-06T21:31:33.359Z,4.10
2023-05-06T21:34:00.279Z,4.18
2023-05-06T21:36:27.129Z,3.90
2023-05-06T21:39:05.851Z,3.90
2023-05-06T21:41:35.315Z,4.00
2023-05-06T21:44:06.197Z,4.20
2023-05-06T21:46:34.325Z,3.67
2023-05-06T21:49:01.300Z,4.07
2023-05-06T21:51:29.934Z,3.70
2023-05-06T21:53:56.525Z,3.50
2023-05-06T21:56:23.213Z,3.22
2023-05-06T21:58:51.094Z,3.85
2023-05-06T22:01:18.077Z,4.15
2023-05-06T22:03:45.953Z,4.18
2023-05-06T22:06:12.779Z,4.63
2023-05-06T22:08:40.920Z,4.15
2023-05-06T22:11:07.667Z,3.95
2023-05-06T22:13:34.380Z,3.95
2023-05-06T22:16:01.142Z,4.38
2023-05-06T22:18:29.894Z,4.10
2023-05-06T22:20:57.822Z,4.40
2023-05-06T22:23:25.117Z,4.47
2023-05-06T22:25:52.165Z,4.43
2023-05-06T22:28:19.764Z,4.22
2023-05-06T22:30:46.501Z,4.70
2023-05-06T22:33:13.242Z,4.40
2023-05-06T22:35:40.007Z,4.47
2023-05-06T22:38:06.716Z,4.40
2023-05-06T22:40:33.307Z,5.30
2023-05-06T22:42:59.941Z,5.00
2023-05-06T22:45:26.593Z,5.03
2023-05-06T22:47:53.411Z,5.20
2023-05-06T22:50:20.090Z,5.55
2023-05-06T22:52:46.687Z,5.70
2023-05-06T22:55:13.494Z,5.20
2023-05-06T22:57:40.314Z,6.35
2023-05-06T23:00:08.618Z,6.38
2023-05-06T23:02:35.331Z,5.47
2023-05-06T23:05:01.983Z,6.60
2023-05-06T23:07:28.618Z,6.40
2023-05-06T23:09:55.299Z,6.45
2023-05-06T23:12:21.838Z,6.15
2023-05-06T23:14:48.392Z,5.43
2023-05-06T23:17:15.054Z,6.07
2023-05-06T23:19:42.450Z,5.40
2023-05-06T23:22:10.263Z,5.63
2023-05-06T23:24:36.870Z,6.65
2023-05-06T23:27:03.484Z,5.53
2023-05-06T23:29:30.179Z,5.90
2023-05-06T23:31:56.765Z,5.40
2023-05-06T23:34:23.484Z,5.65
2023-05-06T23:36:50.589Z,5.65
2023-05-06T23:39:17.556Z,5.88
2023-05-06T23:41:44.297Z,6.38
2023-05-06T23:44:10.897Z,5.95
2023-05-06T23:46:37.546Z,6.00
2023-05-06T23:49:05.335Z,6.10
2023-05-06T23:51:32.591Z,5.93
2023-05-06T23:53:59.180Z,6.25
2023-05-06T23:56:25.756Z,4.80
2023-05-06T23:58:52.365Z,6.25
